createdAt,value
2022-07-30T00:02:25.555Z,49.70
2022-07-30T00:05:15.097Z,49.70
2022-07-30T00:08:04.997Z,50.00
2022-07-30T00:10:55.785Z,50.00
2022-07-30T00:13:45.491Z,50.10
2022-07-30T00:16:35.004Z,50.30
2022-07-30T00:19:24.428Z,50.50
2022-07-30T00:22:15.847Z,50.60
2022-07-30T00:25:06.221Z,50.60
2022-07-30T00:27:57.108Z,50.90
2022-07-30T00:30:46.868Z,51.00
2022-07-30T00:33:42.517Z,51.10
2022-07-30T00:36:32.021Z,51.20
2022-07-30T00:39:21.474Z,51.30
2022-07-30T00:42:10.988Z,51.50
2022-07-30T00:45:01.855Z,51.60
2022-07-30T00:47:51.396Z,51.80
2022-07-30T00:50:41.625Z,51.90
2022-07-30T00:53:35.004Z,52.00
2022-07-30T00:56:24.413Z,52.10
2022-07-30T00:59:13.891Z,52.20
2022-07-30T01:02:04.793Z,52.30
2022-07-30T01:04:54.438Z,52.40
2022-07-30T01:07:44.515Z,52.50
2022-07-30T01:10:34.915Z,52.50
2022-07-30T01:13:24.385Z,52.50
2022-07-30T01:16:14.264Z,52.60
2022-07-30T01:19:30.461Z,52.80
2022-07-30T01:22:34.424Z,53.10
2022-07-30T01:25:46.031Z,53.10
2022-07-30T01:28:39.916Z,53.20
2022-07-30T01:31:31.066Z,53.10
2022-07-30T01:34:22.641Z,53.10
2022-07-30T01:37:13.123Z,53.30
2022-07-30T01:40:02.790Z,53.40
2022-07-30T01:42:55.309Z,53.50
2022-07-30T01:45:46.202Z,53.70
2022-07-30T01:48:40.639Z,53.70
2022-07-30T01:51:37.636Z,53.80
2022-07-30T01:54:29.346Z,53.70
2022-07-30T01:57:21.903Z,53.80
2022-07-30T02:00:14.178Z,54.10
2022-07-30T02:03:08.907Z,54.10
2022-07-30T02:06:04.214Z,54.10
2022-07-30T02:08:58.114Z,54.30
2022-07-30T02:12:09.264Z,54.40
2022-07-30T02:15:10.713Z,54.50
2022-07-30T02:18:07.691Z,54.50
2022-07-30T02:21:07.467Z,54.60
2022-07-30T02:23:58.882Z,54.70
2022-07-30T02:26:53.122Z,54.70
2022-07-30T02:29:44.142Z,54.90
2022-07-30T02:32:40.131Z,54.80
2022-07-30T02:35:32.725Z,55.00
2022-07-30T02:38:25.482Z,55.10
2022-07-30T02:41:16.256Z,55.20
2022-07-30T02:44:06.848Z,55.30
2022-07-30T02:47:00.630Z,55.40
2022-07-30T02:50:35.316Z,55.60
2022-07-30T02:53:26.301Z,55.60
2022-07-30T02:56:20.269Z,55.70
2022-07-30T02:59:11.630Z,55.80
2022-07-30T03:02:05.101Z,55.80
2022-07-30T03:04:56.170Z,56.00
2022-07-30T03:07:47.970Z,56.00
2022-07-30T03:10:39.199Z,56.20
2022-07-30T03:13:28.705Z,56.10
2022-07-30T03:16:20.238Z,56.20
2022-07-30T03:19:11.349Z,56.30
2022-07-30T03:22:03.382Z,56.30
2022-07-30T03:24:56.871Z,56.30
2022-07-30T03:27:48.055Z,56.60
2022-07-30T03:30:38.147Z,56.60
2022-07-30T03:33:29.924Z,56.70
2022-07-30T03:36:30.334Z,56.80
2022-07-30T03:39:20.656Z,56.80
2022-07-30T03:42:12.394Z,56.90
2022-07-30T03:45:03.179Z,57.00
2022-07-30T03:47:53.242Z,57.00
2022-07-30T03:50:43.593Z,57.00
2022-07-30T03:53:33.936Z,57.00
2022-07-30T03:56:42.310Z,57.00
2022-07-30T03:59:51.770Z,57.00
2022-07-30T04:02:43.593Z,57.00
2022-07-30T04:05:51.154Z,57.20
2022-07-30T04:08:40.627Z,57.20
2022-07-30T04:11:40.912Z,57.30
2022-07-30T04:14:42.790Z,57.50
2022-07-30T04:17:39.779Z,57.90
2022-07-30T04:20:36.040Z,57.80
2022-07-30T04:23:26.553Z,57.70
2022-07-30T04:26:16.818Z,57.80
2022-07-30T04:29:08.740Z,57.90
2022-07-30T04:31:59.801Z,58.00
2022-07-30T04:35:50.662Z,58.10
2022-07-30T04:38:43.117Z,58.10
2022-07-30T04:41:48.309Z,58.00
2022-07-30T04:45:00.006Z,58.10
2022-07-30T04:47:54.243Z,58.10
2022-07-30T04:50:50.813Z,58.10
2022-07-30T04:53:43.222Z,58.40
2022-07-30T04:56:36.593Z,58.40
2022-07-30T04:59:26.617Z,58.60
2022-07-30T05:02:18.872Z,58.60
2022-07-30T05:05:12.174Z,58.80
2022-07-30T05:08:04.160Z,58.90
2022-07-30T05:10:54.688Z,59.00
2022-07-30T05:13:46.317Z,59.00
2022-07-30T05:16:36.811Z,59.10
2022-07-30T05:19:26.279Z,59.20
2022-07-30T05:22:15.720Z,59.30
2022-07-30T05:25:15.993Z,59.30
2022-07-30T05:28:07.338Z,59.50
2022-07-30T05:30:58.823Z,59.40
2022-07-30T05:33:48.958Z,59.60
2022-07-30T05:36:40.800Z,59.60
2022-07-30T05:39:30.365Z,59.70
2022-07-30T05:42:39.551Z,59.60
2022-07-30T05:45:31.020Z,59.70
2022-07-30T05:48:20.423Z,59.80
2022-07-30T05:51:09.859Z,59.80
2022-07-30T05:53:59.449Z,59.90
2022-07-30T05:57:23.671Z,59.80
2022-07-30T06:00:16.140Z,59.70
2022-07-30T06:03:14.729Z,59.80
2022-07-30T06:06:27.013Z,59.90
2022-07-30T06:09:16.526Z,59.90
2022-07-30T06:12:11.913Z,60.00
2022-07-30T06:15:03.184Z,60.10
2022-07-30T06:18:01.936Z,60.30
2022-07-30T06:21:12.601Z,60.50
2022-07-30T06:24:29.007Z,60.40
2022-07-30T06:27:31.616Z,60.40
2022-07-30T06:30:30.573Z,60.50
2022-07-30T06:33:23.497Z,60.70
2022-07-30T06:36:13.906Z,60.90
2022-07-30T06:39:56.140Z,60.90
2022-07-30T06:42:42.004Z,60.90
2022-07-30T06:45:49.775Z,60.90
2022-07-30T06:48:54.070Z,61.10
2022-07-30T06:51:43.562Z,61.20
2022-07-30T06:54:33.268Z,61.20
2022-07-30T06:57:42.934Z,61.30
2022-07-30T07:00:53.345Z,61.20
2022-07-30T07:03:42.984Z,61.10
2022-07-30T07:06:34.169Z,61.10
2022-07-30T07:09:24.038Z,61.20
2022-07-30T07:12:30.630Z,61.10
2022-07-30T07:15:22.220Z,61.20
2022-07-30T07:18:12.864Z,61.20
2022-07-30T07:21:08.083Z,61.20
2022-07-30T07:24:02.770Z,61.10
2022-07-30T07:27:15.335Z,61.20
2022-07-30T07:30:09.770Z,61.80
2022-07-30T07:33:00.157Z,61.00
2022-07-30T07:35:50.426Z,61.10
2022-07-30T07:38:54.675Z,61.20
2022-07-30T07:41:49.322Z,61.20
2022-07-30T07:44:43.527Z,61.30
2022-07-30T07:47:32.980Z,61.50
2022-07-30T07:50:33.790Z,61.60
2022-07-30T07:53:24.565Z,61.70
2022-07-30T07:56:14.421Z,61.70
2022-07-30T07:59:06.190Z,62.10
2022-07-30T08:01:57.926Z,62.30
2022-07-30T08:05:14.765Z,62.30
2022-07-30T08:08:12.516Z,62.20
2022-07-30T08:11:20.567Z,62.40
2022-07-30T08:14:29.877Z,62.50
2022-07-30T08:17:46.996Z,62.40
2022-07-30T08:20:46.632Z,62.50
2022-07-30T08:23:42.180Z,62.70
2022-07-30T08:26:32.548Z,62.80
2022-07-30T08:29:22.359Z,63.20
2022-07-30T08:32:13.285Z,63.50
2022-07-30T08:35:04.045Z,63.80
2022-07-30T08:37:54.421Z,63.80
2022-07-30T08:40:45.839Z,64.00
2022-07-30T08:43:39.352Z,64.30
2022-07-30T08:46:33.133Z,64.30
2022-07-30T08:49:50.328Z,64.40
2022-07-30T08:52:45.191Z,64.30
2022-07-30T08:55:34.861Z,64.30
2022-07-30T08:58:30.347Z,64.40
2022-07-30T09:01:19.796Z,64.50
2022-07-30T09:04:09.411Z,64.30
2022-07-30T09:07:00.587Z,64.30
2022-07-30T09:09:50.165Z,64.20
2022-07-30T09:12:42.626Z,64.00
2022-07-30T09:15:33.665Z,64.10
2022-07-30T09:18:32.273Z,64.80
2022-07-30T09:21:24.596Z,64.70
2022-07-30T09:24:22.903Z,64.40
2022-07-30T09:27:47.620Z,64.50
2022-07-30T09:30:58.373Z,65.10
2022-07-30T09:34:28.975Z,64.60
2022-07-30T09:37:27.746Z,65.10
2022-07-30T09:40:38.094Z,64.50
2022-07-30T09:43:53.023Z,64.90
2022-07-30T09:46:51.829Z,65.00
2022-07-30T09:50:07.726Z,65.10
2022-07-30T09:53:07.584Z,65.60
2022-07-30T09:56:01.523Z,65.50
2022-07-30T09:58:52.404Z,66.00
2022-07-30T10:02:01.465Z,66.10
2022-07-30T10:05:14.895Z,67.00
2022-07-30T10:08:09.336Z,66.20
2022-07-30T10:11:11.394Z,66.00
2022-07-30T10:14:02.545Z,66.10
2022-07-30T10:16:52.907Z,65.90
2022-07-30T10:19:42.535Z,65.90
2022-07-30T10:23:08.210Z,65.80
2022-07-30T10:25:58.712Z,65.60
2022-07-30T10:29:33.550Z,65.60
2022-07-30T10:32:27.438Z,65.50
2022-07-30T10:35:34.737Z,65.60
2022-07-30T10:38:33.535Z,65.90
2022-07-30T10:41:43.322Z,66.40
2022-07-30T10:45:17.889Z,67.10
2022-07-30T10:48:08.902Z,67.70
2022-07-30T10:50:59.944Z,66.90
2022-07-30T10:53:50.688Z,67.10
2022-07-30T10:56:40.117Z,67.10
2022-07-30T10:59:29.550Z,67.10
2022-07-30T11:02:22.987Z,67.50
2022-07-30T11:05:44.267Z,68.00
2022-07-30T11:08:42.597Z,68.90
2022-07-30T11:12:01.309Z,68.80
2022-07-30T11:15:16.864Z,69.60
2022-07-30T11:18:13.612Z,69.30
2022-07-30T11:21:21.556Z,69.10
2022-07-30T11:24:44.067Z,69.30
2022-07-30T11:27:41.845Z,69.10
2022-07-30T11:30:36.173Z,68.60
2022-07-30T11:33:32.910Z,68.80
2022-07-30T11:36:24.298Z,69.10
2022-07-30T11:39:13.883Z,69.40
2022-07-30T11:42:27.637Z,69.80
2022-07-30T11:45:33.225Z,70.70
2022-07-30T11:48:22.733Z,70.70
2022-07-30T11:51:13.773Z,70.50
2022-07-30T11:54:04.302Z,70.70
2022-07-30T11:57:02.182Z,70.80
2022-07-30T11:59:56.319Z,70.80
2022-07-30T12:02:46.402Z,70.90
2022-07-30T12:05:36.182Z,70.70
2022-07-30T12:08:35.230Z,70.50
2022-07-30T12:11:26.162Z,70.50
2022-07-30T12:14:15.571Z,70.30
2022-07-30T12:17:05.366Z,70.30
2022-07-30T12:19:55.116Z,70.20
2022-07-30T12:22:45.017Z,70.20
2022-07-30T12:25:40.345Z,70.80
2022-07-30T12:28:37.989Z,70.10
2022-07-30T12:31:28.391Z,69.70
2022-07-30T12:34:23.109Z,69.60
2022-07-30T12:37:13.607Z,69.40
2022-07-30T12:40:14.347Z,69.30
2022-07-30T12:43:05.811Z,69.30
2022-07-30T12:46:03.873Z,69.20
2022-07-30T12:48:58.641Z,69.50
2022-07-30T12:52:01.697Z,70.00
2022-07-30T12:55:04.283Z,70.50
2022-07-30T12:58:02.920Z,71.10
2022-07-30T13:00:56.630Z,71.50
2022-07-30T13:03:46.686Z,72.00
2022-07-30T13:06:38.023Z,72.20
2022-07-30T13:09:27.933Z,72.10
2022-07-30T13:12:17.367Z,71.60
2022-07-30T13:15:09.258Z,70.80
2022-07-30T13:18:00.102Z,70.30
2022-07-30T13:20:50.512Z,69.40
2022-07-30T13:23:42.161Z,68.70
2022-07-30T13:26:32.043Z,68.20
2022-07-30T13:29:21.496Z,67.60
2022-07-30T13:32:11.046Z,67.00
2022-07-30T13:35:02.236Z,66.50
2022-07-30T13:37:51.862Z,66.60
2022-07-30T13:40:41.426Z,65.50
2022-07-30T13:43:33.763Z,65.10
2022-07-30T13:46:23.585Z,64.80
2022-07-30T13:49:13.149Z,64.80
2022-07-30T13:52:04.403Z,64.80
2022-07-30T13:54:54.393Z,64.50
2022-07-30T13:57:45.029Z,64.50
2022-07-30T14:00:36.740Z,64.40
2022-07-30T14:03:26.152Z,64.50
2022-07-30T14:06:15.528Z,64.50
2022-07-30T14:09:06.417Z,64.50
2022-07-30T14:11:56.118Z,64.30
2022-07-30T14:14:45.812Z,64.20
2022-07-30T14:17:35.289Z,64.30
2022-07-30T14:20:25.154Z,64.10
2022-07-30T14:23:18.660Z,64.00
2022-07-30T14:26:09.516Z,63.90
2022-07-30T14:29:00.451Z,64.00
2022-07-30T14:31:49.938Z,64.00
2022-07-30T14:34:39.495Z,63.60
2022-07-30T14:37:29.195Z,63.60
2022-07-30T14:40:18.661Z,63.40
2022-07-30T14:43:09.578Z,63.20
2022-07-30T14:45:59.270Z,62.90
2022-07-30T14:48:48.828Z,62.60
2022-07-30T14:51:38.256Z,62.40
2022-07-30T14:54:28.818Z,62.20
2022-07-30T14:57:18.303Z,61.90
2022-07-30T15:00:11.885Z,61.70
2022-07-30T15:03:01.334Z,61.40
2022-07-30T15:05:52.454Z,61.30
2022-07-30T15:08:42.590Z,61.00
2022-07-30T15:11:45.047Z,60.80
2022-07-30T15:14:42.364Z,60.70
2022-07-30T15:17:34.643Z,60.60
2022-07-30T15:20:24.150Z,60.60
2022-07-30T15:23:14.372Z,60.50
2022-07-30T15:26:04.032Z,60.50
2022-07-30T15:28:53.792Z,60.60
2022-07-30T15:31:43.470Z,60.80
2022-07-30T15:34:35.748Z,60.90
2022-07-30T15:37:25.217Z,60.90
2022-07-30T15:40:14.703Z,60.90
2022-07-30T15:43:07.708Z,60.80
2022-07-30T15:45:59.549Z,61.00
2022-07-30T15:48:49.046Z,61.10
2022-07-30T15:51:47.473Z,61.20
2022-07-30T15:54:36.933Z,61.20
2022-07-30T15:57:26.349Z,61.30
2022-07-30T16:00:17.591Z,61.30
2022-07-30T16:03:07.028Z,61.40
2022-07-30T16:05:56.448Z,61.30
2022-07-30T16:08:47.478Z,61.40
2022-07-30T16:11:37.112Z,61.20
2022-07-30T16:14:27.249Z,61.10
2022-07-30T16:17:16.812Z,61.10
2022-07-30T16:20:07.765Z,61.10
2022-07-30T16:22:57.198Z,61.00
2022-07-30T16:25:48.001Z,60.90
2022-07-30T16:28:37.998Z,60.80
2022-07-30T16:31:27.810Z,60.70
2022-07-30T16:34:18.038Z,60.60
2022-07-30T16:37:16.196Z,60.60
2022-07-30T16:40:07.135Z,60.40
2022-07-30T16:42:58.064Z,60.30
2022-07-30T16:45:47.934Z,60.20
2022-07-30T16:48:37.453Z,60.80
2022-07-30T16:51:27.179Z,60.20
2022-07-30T16:54:16.666Z,60.30
2022-07-30T16:57:10.503Z,60.40
2022-07-30T17:00:01.625Z,60.40
2022-07-30T17:02:51.702Z,60.80
2022-07-30T17:05:45.193Z,60.80
2022-07-30T17:08:35.358Z,61.00
2022-07-30T17:11:47.390Z,61.30
2022-07-30T17:14:35.121Z,61.40
2022-07-30T17:17:26.004Z,61.60
2022-07-30T17:20:15.590Z,61.80
2022-07-30T17:23:05.109Z,61.80
2022-07-30T17:25:54.535Z,61.90
2022-07-30T17:28:44.011Z,62.00
2022-07-30T17:31:33.408Z,62.10
2022-07-30T17:34:24.295Z,62.30
2022-07-30T17:37:13.845Z,62.60
2022-07-30T17:40:27.422Z,62.80
2022-07-30T17:43:14.008Z,62.80
2022-07-30T17:46:04.000Z,62.80
2022-07-30T17:48:53.626Z,62.90
2022-07-30T17:51:44.493Z,62.90
2022-07-30T17:54:34.075Z,63.10
2022-07-30T17:57:23.666Z,63.10
2022-07-30T18:00:14.723Z,63.10
2022-07-30T18:03:04.592Z,63.10
2022-07-30T18:05:56.238Z,63.10
2022-07-30T18:08:47.085Z,63.20
2022-07-30T18:11:36.541Z,63.10
2022-07-30T18:14:27.391Z,62.90
2022-07-30T18:17:16.969Z,62.90
2022-07-30T18:20:08.017Z,63.00
2022-07-30T18:22:57.511Z,63.10
2022-07-30T18:25:53.240Z,63.10
2022-07-30T18:28:44.016Z,63.20
2022-07-30T18:31:33.969Z,63.30
2022-07-30T18:34:23.382Z,63.40
2022-07-30T18:37:12.859Z,63.60
2022-07-30T18:40:04.082Z,63.90
2022-07-30T18:42:57.328Z,64.00
2022-07-30T18:45:48.582Z,64.10
2022-07-30T18:48:38.273Z,64.20
2022-07-30T18:51:27.843Z,64.30
2022-07-30T18:54:18.147Z,64.50
2022-07-30T18:57:13.935Z,64.50
2022-07-30T19:00:08.953Z,64.80
2022-07-30T19:02:58.474Z,65.10
2022-07-30T19:05:47.947Z,65.10
2022-07-30T19:08:37.409Z,65.10
2022-07-30T19:11:26.830Z,65.30
2022-07-30T19:14:16.542Z,65.30
2022-07-30T19:17:13.712Z,65.50
2022-07-30T19:20:03.788Z,65.60
2022-07-30T19:22:55.386Z,65.40
2022-07-30T19:25:44.775Z,66.00
2022-07-30T19:28:34.766Z,65.30
2022-07-30T19:31:24.363Z,65.20
2022-07-30T19:34:15.730Z,65.10
2022-07-30T19:37:05.257Z,65.40
2022-07-30T19:43:06.551Z,65.40
2022-07-30T19:45:59.672Z,65.50
2022-07-30T19:48:49.258Z,65.80
2022-07-30T19:52:07.316Z,66.00
2022-07-30T19:54:50.904Z,66.30
2022-07-30T19:57:45.702Z,66.20
2022-07-30T20:00:43.766Z,66.20
2022-07-30T20:03:39.792Z,66.20
2022-07-30T20:06:29.408Z,66.30
2022-07-30T20:09:21.257Z,66.40
2022-07-30T20:12:10.920Z,66.70
2022-07-30T20:15:00.423Z,66.50
2022-07-30T20:17:49.855Z,66.40
2022-07-30T20:20:39.262Z,66.50
2022-07-30T20:23:31.218Z,66.60
2022-07-30T20:26:26.156Z,66.70
2022-07-30T20:29:19.274Z,66.90
2022-07-30T20:32:28.086Z,66.90
2022-07-30T20:35:19.913Z,67.10
2022-07-30T20:38:10.325Z,67.20
2022-07-30T20:40:59.719Z,67.50
2022-07-30T20:43:52.538Z,67.80
2022-07-30T20:46:44.342Z,67.90
2022-07-30T20:49:36.063Z,67.90
2022-07-30T20:52:25.506Z,68.10
2022-07-30T20:55:16.627Z,68.30
2022-07-30T21:01:18.647Z,68.70
2022-07-30T21:04:08.090Z,69.00
2022-07-30T21:06:58.538Z,69.00
2022-07-30T21:09:52.017Z,69.10
2022-07-30T21:12:44.717Z,69.20
2022-07-30T21:18:51.315Z,69.70
2022-07-30T21:21:48.063Z,70.20
2022-07-30T21:24:51.499Z,70.10
2022-07-30T21:27:41.032Z,70.30
2022-07-30T21:30:30.596Z,70.60
2022-07-30T21:33:20.209Z,70.70
2022-07-30T21:36:13.905Z,71.00
2022-07-30T21:39:05.014Z,71.60
2022-07-30T21:41:54.559Z,71.50
2022-07-30T21:44:45.252Z,71.70
2022-07-30T21:47:35.249Z,71.90
2022-07-30T21:50:24.807Z,72.20
2022-07-30T21:53:15.699Z,72.40
2022-07-30T21:56:05.449Z,72.70
2022-07-30T21:58:55.155Z,72.70
2022-07-30T22:01:47.791Z,72.90
2022-07-30T22:04:37.352Z,73.10
2022-07-30T22:07:27.313Z,73.20
2022-07-30T22:10:21.442Z,73.30
2022-07-30T22:13:13.071Z,74.00
2022-07-30T22:16:02.508Z,73.90
2022-07-30T22:18:52.169Z,74.40
2022-07-30T22:21:41.770Z,74.70
2022-07-30T22:24:31.313Z,75.10
2022-07-30T22:27:22.258Z,75.30
2022-07-30T22:30:13.743Z,75.50
2022-07-30T22:33:14.263Z,75.40
2022-07-30T22:36:04.904Z,76.30
2022-07-30T22:38:59.364Z,75.10
2022-07-30T22:41:48.826Z,75.00
2022-07-30T22:44:39.601Z,74.90
2022-07-30T22:47:54.098Z,75.20
2022-07-30T22:50:44.919Z,75.00
2022-07-30T22:54:11.360Z,75.00
2022-07-30T22:56:47.414Z,75.20
2022-07-30T22:59:59.861Z,75.40
2022-07-30T23:02:49.078Z,75.80
2022-07-30T23:05:40.028Z,76.20
2022-07-30T23:08:33.039Z,76.50
2022-07-30T23:11:22.496Z,76.90
2022-07-30T23:12:17.633Z,65.30
2022-07-30T23:12:26.632Z,68.40
2022-07-30T23:12:31.989Z,69.40
2022-07-30T23:14:12.401Z,77.00
2022-07-30T23:17:03.462Z,77.30
2022-07-30T23:19:53.014Z,77.80
2022-07-30T23:22:42.697Z,77.80
2022-07-30T23:25:34.487Z,78.00
2022-07-30T23:28:28.568Z,78.00
2022-07-30T23:31:18.382Z,77.90
2022-07-30T23:34:09.147Z,77.90
2022-07-30T23:36:58.598Z,78.30
2022-07-30T23:39:48.342Z,78.10
2022-07-30T23:42:38.089Z,78.10
2022-07-30T23:45:28.110Z,78.80
2022-07-30T23:48:17.530Z,78.10
2022-07-30T23:51:08.847Z,78.10
2022-07-30T23:53:58.591Z,78.60
2022-07-30T23:56:49.228Z,78.20
2022-07-30T23:59:41.697Z,78.30
